createdAt,value
2023-04-27T00:01:45.973Z,2.5
2023-04-27T00:01:48.654Z,2.5
2023-04-27T00:03:18.468Z,3
2023-04-27T00:04:19.967Z,2.799999952
2023-04-27T00:05:21.313Z,2.599999905
2023-04-27T00:06:22.768Z,2.400000095
2023-04-27T00:07:24.452Z,3
2023-04-27T00:08:26.329Z,3.200000048
2023-04-27T00:09:28.300Z,2.5
2023-04-27T00:10:29.863Z,2
2023-04-27T00:11:31.790Z,2.5
2023-04-27T00:12:33.301Z,2.299999952
2023-04-27T00:13:35.405Z,2.599999905
2023-04-27T00:14:37.328Z,2.900000095
2023-04-27T00:15:39.455Z,2.599999905
2023-04-27T00:16:41.537Z,2.299999952
2023-04-27T00:17:43.361Z,2.599999905
2023-04-27T00:18:46.254Z,2.099999905
2023-04-27T00:20:18.848Z,2.299999952
2023-04-27T00:21:20.773Z,2.400000095
2023-04-27T00:22:22.315Z,2
2023-04-27T00:23:23.897Z,2.400000095
2023-04-27T00:24:25.913Z,2.599999905
2023-04-27T00:25:27.854Z,2.5
2023-04-27T00:26:29.397Z,2.900000095
2023-04-27T00:27:31.347Z,2.400000095
2023-04-27T00:28:33.320Z,2.5
2023-04-27T00:29:34.824Z,2.599999905
2023-04-27T00:30:36.525Z,2.5
2023-04-27T00:31:38.400Z,2.799999952
2023-04-27T00:32:40.356Z,2.5
2023-04-27T00:33:41.882Z,2.799999952
2023-04-27T00:34:43.821Z,3.200000048
2023-04-27T00:35:45.309Z,2.400000095
2023-04-27T00:36:47.287Z,2.200000048
2023-04-27T00:38:19.760Z,2.400000095
2023-04-27T00:39:21.285Z,2.200000048
2023-04-27T00:40:22.800Z,3.299999952
2023-04-27T00:41:24.275Z,3.700000048
2023-04-27T00:42:25.677Z,2.400000095
2023-04-27T00:43:27.186Z,2.400000095
2023-04-27T00:44:28.810Z,2.5
2023-04-27T00:45:30.162Z,2.900000095
2023-04-27T00:46:31.707Z,3
2023-04-27T00:47:33.831Z,2.599999905
2023-04-27T00:48:35.339Z,2.700000048
2023-04-27T00:49:36.348Z,2.799999952
2023-04-27T00:50:38.338Z,2.799999952
2023-04-27T00:51:39.866Z,2.900000095
2023-04-27T00:52:41.826Z,3.299999952
2023-04-27T00:53:43.360Z,2.799999952
2023-04-27T00:54:45.271Z,3
2023-04-27T00:56:17.807Z,2.5
2023-04-27T00:57:19.288Z,3
2023-04-27T00:58:20.829Z,2.700000048
2023-04-27T00:59:22.305Z,3.099999905
2023-04-27T01:00:23.765Z,2.900000095
2023-04-27T01:01:25.309Z,2.799999952
2023-04-27T01:02:26.913Z,3
2023-04-27T01:03:28.451Z,3.200000048
2023-04-27T01:04:29.319Z,2.900000095
2023-04-27T01:05:32.503Z,2.799999952
2023-04-27T01:06:32.281Z,2.400000095
2023-04-27T01:07:34.286Z,2.799999952
2023-04-27T01:08:35.910Z,2.700000048
2023-04-27T01:09:37.704Z,3
2023-04-27T01:10:39.372Z,3.5
2023-04-27T01:11:41.218Z,3
2023-04-27T01:12:42.763Z,3.299999952
2023-04-27T01:13:44.809Z,3.200000048
2023-04-27T01:14:46.820Z,3.299999952
2023-04-27T01:16:19.389Z,3.099999905
2023-04-27T01:17:20.757Z,2.599999905
2023-04-27T01:18:21.840Z,3.099999905
2023-04-27T01:19:23.251Z,3
2023-04-27T01:20:25.118Z,2.900000095
2023-04-27T01:21:26.799Z,3
2023-04-27T01:22:28.745Z,3
2023-04-27T01:23:30.235Z,2.799999952
2023-04-27T01:24:31.762Z,3
2023-04-27T01:25:33.278Z,2.799999952
2023-04-27T01:26:34.799Z,3.400000095
2023-04-27T01:27:36.299Z,3.200000048
2023-04-27T01:28:37.759Z,2.799999952
2023-04-27T01:29:39.368Z,2.599999905
2023-04-27T01:30:41.299Z,2.700000048
2023-04-27T01:31:43.354Z,2.599999905
2023-04-27T01:32:44.317Z,2.200000048
2023-04-27T01:33:46.188Z,2.5
2023-04-27T01:35:18.780Z,2.700000048
2023-04-27T01:36:20.330Z,2.5
2023-04-27T01:37:21.747Z,3.200000048
2023-04-27T01:38:23.253Z,2.900000095
2023-04-27T01:39:24.753Z,2.599999905
2023-04-27T01:40:26.337Z,2.599999905
2023-04-27T01:41:28.381Z,2.799999952
2023-04-27T01:42:30.310Z,2.799999952
2023-04-27T01:43:31.684Z,2.700000048
2023-04-27T01:44:33.327Z,3.099999905
2023-04-27T01:45:34.857Z,2.599999905
2023-04-27T01:46:36.870Z,2.900000095
2023-04-27T01:47:38.335Z,3
2023-04-27T01:48:39.794Z,2.599999905
2023-04-27T01:49:40.642Z,2.900000095
2023-04-27T01:50:42.314Z,3
2023-04-27T01:51:44.304Z,3
2023-04-27T01:52:46.293Z,2.700000048
2023-04-27T01:54:18.270Z,2.799999952
2023-04-27T01:55:19.878Z,3
2023-04-27T01:56:21.836Z,3
2023-04-27T01:57:22.784Z,2.5
2023-04-27T01:58:24.232Z,2.400000095
2023-04-27T01:59:25.760Z,3
2023-04-27T02:00:27.328Z,3
2023-04-27T02:01:28.876Z,3.400000095
2023-04-27T02:02:30.453Z,2.700000048
2023-04-27T02:03:31.898Z,2.599999905
2023-04-27T02:04:33.487Z,2.700000048
2023-04-27T02:05:34.907Z,3.200000048
2023-04-27T02:06:35.800Z,2.099999905
2023-04-27T02:07:37.277Z,2.700000048
2023-04-27T02:08:38.872Z,2.900000095
2023-04-27T02:09:40.768Z,2.700000048
2023-04-27T02:10:42.445Z,2.799999952
2023-04-27T02:11:44.372Z,3.299999952
2023-04-27T02:13:17.279Z,2.599999905
2023-04-27T02:14:18.793Z,2.599999905
2023-04-27T02:15:20.288Z,2.700000048
2023-04-27T02:16:21.867Z,3.400000095
2023-04-27T02:17:23.859Z,2.900000095
2023-04-27T02:18:25.692Z,2.700000048
2023-04-27T02:19:27.220Z,2.700000048
2023-04-27T02:20:28.852Z,2.599999905
2023-04-27T02:21:30.900Z,3
2023-04-27T02:22:32.320Z,2.900000095
2023-04-27T02:23:33.805Z,3.099999905
2023-04-27T02:24:35.284Z,3
2023-04-27T02:25:36.837Z,2.799999952
2023-04-27T02:26:38.392Z,2.700000048
2023-04-27T02:27:40.310Z,3.299999952
2023-04-27T02:28:42.203Z,3.099999905
2023-04-27T02:29:44.182Z,2.400000095
2023-04-27T02:31:17.368Z,2.900000095
2023-04-27T02:32:18.830Z,2.799999952
2023-04-27T02:33:20.297Z,3.200000048
2023-04-27T02:34:22.340Z,2.900000095
2023-04-27T02:35:23.232Z,2.5
2023-04-27T02:36:24.831Z,2.599999905
2023-04-27T02:37:26.900Z,2.599999905
2023-04-27T02:38:28.769Z,2.599999905
2023-04-27T02:39:30.307Z,2.400000095
2023-04-27T02:40:31.737Z,3.099999905
2023-04-27T02:41:33.407Z,2.5
2023-04-27T02:42:35.465Z,2.599999905
2023-04-27T02:43:37.284Z,3
2023-04-27T02:44:38.796Z,2.599999905
2023-04-27T02:45:40.403Z,2.5
2023-04-27T02:46:42.397Z,2.099999905
2023-04-27T02:47:45.869Z,2.299999952
2023-04-27T02:49:20.188Z,2.5
2023-04-27T02:50:22.961Z,2.400000095
2023-04-27T02:51:25.739Z,2.299999952
2023-04-27T02:52:30.482Z,2.299999952
2023-04-27T02:53:35.475Z,1.799999952
2023-04-27T02:54:37.719Z,2.799999952
2023-04-27T02:55:40.293Z,2.299999952
2023-04-27T02:56:43.254Z,2.200000048
2023-04-27T02:57:46.828Z,2
2023-04-27T02:59:21.042Z,1.899999976
2023-04-27T03:00:23.710Z,2
2023-04-27T03:01:25.597Z,2.200000048
2023-04-27T03:02:27.402Z,2.200000048
2023-04-27T03:03:29.498Z,2.5
2023-04-27T03:04:30.748Z,2.299999952
2023-04-27T03:05:32.234Z,2
2023-04-27T03:06:33.954Z,2.400000095
2023-04-27T03:07:35.802Z,2.5
2023-04-27T03:08:37.350Z,2.599999905
2023-04-27T03:09:38.751Z,2.400000095
2023-04-27T03:10:40.502Z,2.5
2023-04-27T03:11:42.343Z,2.299999952
2023-04-27T03:12:44.321Z,2.5
2023-04-27T03:13:46.316Z,2.5
2023-04-27T03:15:18.187Z,2.5
2023-04-27T03:16:19.992Z,2.5
2023-04-27T03:17:21.898Z,2.700000048
2023-04-27T03:18:23.317Z,2.200000048
2023-04-27T03:19:24.776Z,2.299999952
2023-04-27T03:20:26.188Z,2.400000095
2023-04-27T03:21:27.861Z,2.200000048
2023-04-27T03:22:29.444Z,2
2023-04-27T03:23:31.381Z,2.5
2023-04-27T03:24:33.250Z,2.299999952
2023-04-27T03:25:34.755Z,2.099999905
2023-04-27T03:26:36.257Z,2.5
2023-04-27T03:27:37.859Z,2.299999952
2023-04-27T03:28:39.873Z,2.900000095
2023-04-27T03:29:41.821Z,2.299999952
2023-04-27T03:30:44.075Z,2.700000048
2023-04-27T03:32:17.302Z,2.599999905
2023-04-27T03:33:18.850Z,2
2023-04-27T03:34:20.822Z,2.400000095
2023-04-27T03:35:21.817Z,2.700000048
2023-04-27T03:36:23.333Z,2.599999905
2023-04-27T03:37:24.827Z,2
2023-04-27T03:38:26.325Z,2.5
2023-04-27T03:39:28.394Z,2.200000048
2023-04-27T03:40:30.340Z,2.700000048
2023-04-27T03:41:31.809Z,2
2023-04-27T03:42:33.404Z,2.400000095
2023-04-27T03:43:35.434Z,2.299999952
2023-04-27T03:44:37.286Z,1.899999976
2023-04-27T03:45:38.818Z,2.200000048
2023-04-27T03:46:40.259Z,2.5
2023-04-27T03:47:41.438Z,2.700000048
2023-04-27T03:48:42.461Z,3.299999952
2023-04-27T03:49:44.264Z,2.5
2023-04-27T03:51:16.984Z,2.599999905
2023-04-27T03:52:19.074Z,2.799999952
2023-04-27T03:53:20.782Z,2.5
2023-04-27T03:54:23.137Z,2.799999952
2023-04-27T03:55:25.353Z,3.099999905
2023-04-27T03:56:27.580Z,2.900000095
2023-04-27T03:57:29.475Z,2.5
2023-04-27T03:58:31.802Z,2.799999952
2023-04-27T03:59:34.139Z,2.799999952
2023-04-27T04:00:35.820Z,2.700000048
2023-04-27T04:01:37.421Z,2.700000048
2023-04-27T04:02:38.999Z,2.5
2023-04-27T04:03:40.915Z,2.299999952
2023-04-27T04:04:42.614Z,3.299999952
2023-04-27T04:05:44.648Z,3
2023-04-27T04:07:17.271Z,2.700000048
2023-04-27T04:08:18.871Z,2.799999952
2023-04-27T04:09:22.716Z,3.200000048
2023-04-27T04:10:22.856Z,2.799999952
2023-04-27T04:11:24.250Z,2.5
2023-04-27T04:12:26.866Z,3
2023-04-27T04:13:29.399Z,3
2023-04-27T04:14:30.365Z,2.5
2023-04-27T04:15:32.308Z,2.200000048
2023-04-27T04:16:33.739Z,2.400000095
2023-04-27T04:17:35.348Z,2.900000095
2023-04-27T04:18:36.852Z,2.799999952
2023-04-27T04:19:37.859Z,2.299999952
2023-04-27T04:20:39.732Z,2.5
2023-04-27T04:21:41.305Z,2.200000048
2023-04-27T04:22:42.936Z,2.599999905
2023-04-27T04:23:44.921Z,2.099999905
2023-04-27T04:25:17.421Z,2.700000048
2023-04-27T04:26:19.324Z,2
2023-04-27T04:27:20.951Z,2.099999905
2023-04-27T04:28:22.928Z,2.200000048
2023-04-27T04:29:24.926Z,2.099999905
2023-04-27T04:30:26.819Z,2.5
2023-04-27T04:31:28.316Z,2.099999905
2023-04-27T04:32:29.884Z,2
2023-04-27T04:33:31.438Z,2.200000048
2023-04-27T04:34:33.409Z,2.099999905
2023-04-27T04:35:35.278Z,2.099999905
2023-04-27T04:36:36.211Z,2.200000048
2023-04-27T04:37:37.796Z,3
2023-04-27T04:38:39.443Z,2.5
2023-04-27T04:39:41.418Z,2.5
2023-04-27T04:40:45.860Z,2.299999952
2023-04-27T04:42:16.316Z,2.5
2023-04-27T04:43:17.919Z,2.299999952
2023-04-27T04:44:19.979Z,2.5
2023-04-27T04:45:21.823Z,2.200000048
2023-04-27T04:46:23.307Z,2.400000095
2023-04-27T04:47:25.325Z,2.400000095
2023-04-27T04:48:27.474Z,2.200000048
2023-04-27T04:49:29.520Z,2.5
2023-04-27T04:50:31.352Z,2.400000095
2023-04-27T04:51:32.776Z,2
2023-04-27T04:52:34.273Z,2.900000095
2023-04-27T04:53:35.927Z,2.799999952
2023-04-27T04:54:37.986Z,2.599999905
2023-04-27T04:55:39.836Z,2.299999952
2023-04-27T04:56:41.780Z,2.900000095
2023-04-27T04:57:43.318Z,2.200000048
2023-04-27T04:59:16.893Z,2.700000048
2023-04-27T05:00:18.878Z,2.200000048
2023-04-27T05:01:20.873Z,2.5
2023-04-27T05:02:22.950Z,2.200000048
2023-04-27T05:03:24.561Z,2.599999905
2023-04-27T05:04:26.004Z,2.299999952
2023-04-27T05:05:27.356Z,2.900000095
2023-04-27T05:06:28.891Z,2.400000095
2023-04-27T05:07:30.831Z,2.5
2023-04-27T05:08:32.662Z,3
2023-04-27T05:09:34.500Z,3
2023-04-27T05:10:36.425Z,2.900000095
2023-04-27T05:11:38.219Z,2.599999905
2023-04-27T05:12:39.798Z,2.5
2023-04-27T05:13:41.385Z,3.099999905
2023-04-27T05:14:43.407Z,2.599999905
2023-04-27T05:16:16.887Z,2.400000095
2023-04-27T05:17:18.420Z,2.400000095
2023-04-27T05:18:19.865Z,2.900000095
2023-04-27T05:19:21.852Z,2.5
2023-04-27T05:20:23.339Z,2.900000095
2023-04-27T05:21:24.720Z,2.400000095
2023-04-27T05:22:26.254Z,2.700000048
2023-04-27T05:23:27.720Z,2.200000048
2023-04-27T05:24:29.226Z,2.900000095
2023-04-27T05:25:30.814Z,2.400000095
2023-04-27T05:26:32.445Z,2.799999952
2023-04-27T05:27:34.256Z,2.900000095
2023-04-27T05:28:35.818Z,3.900000095
2023-04-27T05:29:37.250Z,2.599999905
2023-04-27T05:30:38.800Z,2.599999905
2023-04-27T05:31:40.464Z,2.400000095
2023-04-27T05:32:41.826Z,2.700000048
2023-04-27T05:33:43.194Z,2.400000095
2023-04-27T05:35:15.862Z,2.599999905
2023-04-27T05:36:16.769Z,2.299999952
2023-04-27T05:37:18.294Z,2.200000048
2023-04-27T05:38:19.677Z,2.5
2023-04-27T05:39:21.310Z,2.700000048
2023-04-27T05:40:22.961Z,2.599999905
2023-04-27T05:41:24.807Z,2.799999952
2023-04-27T05:42:26.384Z,2.900000095
2023-04-27T05:43:27.790Z,2.599999905
2023-04-27T05:44:29.392Z,2.299999952
2023-04-27T05:45:31.407Z,2.200000048
2023-04-27T05:46:32.936Z,2.700000048
2023-04-27T05:47:35.326Z,2.5
2023-04-27T05:48:36.795Z,2.799999952
2023-04-27T05:49:38.284Z,3
2023-04-27T05:50:39.887Z,2.799999952
2023-04-27T05:51:41.892Z,2.299999952
2023-04-27T05:53:15.390Z,2.5
2023-04-27T05:54:16.792Z,2.200000048
2023-04-27T05:55:18.225Z,2.599999905
2023-04-27T05:56:19.773Z,2.700000048
2023-04-27T05:57:21.304Z,2.599999905
2023-04-27T05:58:22.754Z,2.900000095
2023-04-27T05:59:24.227Z,2.799999952
2023-04-27T06:00:25.795Z,2.900000095
2023-04-27T06:01:27.394Z,2.700000048
2023-04-27T06:02:28.961Z,2.599999905
2023-04-27T06:03:30.497Z,2.799999952
2023-04-27T06:04:31.841Z,2.700000048
2023-04-27T06:05:33.521Z,2.599999905
2023-04-27T06:06:34.891Z,2.700000048
2023-04-27T06:07:37.704Z,2.700000048
2023-04-27T06:08:39.655Z,2.599999905
2023-04-27T06:09:41.389Z,3
2023-04-27T06:10:42.839Z,3.099999905
2023-04-27T06:12:16.346Z,2.900000095
2023-04-27T06:13:18.344Z,3.099999905
2023-04-27T06:14:19.907Z,2.5
2023-04-27T06:15:21.343Z,3.099999905
2023-04-27T06:16:22.901Z,2.700000048
2023-04-27T06:17:24.330Z,2.400000095
2023-04-27T06:18:25.784Z,2.299999952
2023-04-27T06:19:27.350Z,3.099999905
2023-04-27T06:20:28.793Z,2.700000048
2023-04-27T06:21:30.284Z,2.099999905
2023-04-27T06:22:31.854Z,2.799999952
2023-04-27T06:23:33.374Z,2.400000095
2023-04-27T06:24:34.838Z,3
2023-04-27T06:25:36.204Z,2.400000095
2023-04-27T06:26:37.704Z,2.5
2023-04-27T06:27:39.444Z,3
2023-04-27T06:28:41.231Z,3.400000095
2023-04-27T06:29:43.319Z,2.400000095
2023-04-27T06:31:15.840Z,2.400000095
2023-04-27T06:32:17.187Z,2.400000095
2023-04-27T06:33:18.778Z,2.099999905
2023-04-27T06:34:20.280Z,2.700000048
2023-04-27T06:35:21.780Z,2.299999952
2023-04-27T06:36:23.336Z,2.099999905
2023-04-27T06:37:24.954Z,2.200000048
2023-04-27T06:38:26.327Z,2
2023-04-27T06:39:27.746Z,3.099999905
2023-04-27T06:40:29.393Z,2.700000048
2023-04-27T06:41:31.283Z,2.400000095
2023-04-27T06:42:32.737Z,2.700000048
2023-04-27T06:43:34.324Z,2.200000048
2023-04-27T06:44:35.836Z,2.200000048
2023-04-27T06:45:37.338Z,2
2023-04-27T06:46:39.092Z,2.299999952
2023-04-27T06:47:40.320Z,2.200000048
2023-04-27T06:48:41.770Z,2.200000048
2023-04-27T06:50:14.392Z,2
2023-04-27T06:51:15.841Z,2.5
2023-04-27T06:52:17.322Z,2.200000048
2023-04-27T06:53:18.771Z,2.700000048
2023-04-27T06:54:20.280Z,2.099999905
2023-04-27T06:55:21.863Z,2.200000048
2023-04-27T06:56:23.299Z,2.200000048
2023-04-27T06:57:24.740Z,2.400000095
2023-04-27T06:58:26.257Z,2.200000048
2023-04-27T06:59:27.797Z,1.799999952
2023-04-27T07:00:29.240Z,2.799999952
2023-04-27T07:01:30.844Z,2.200000048
2023-04-27T07:02:32.346Z,2.200000048
2023-04-27T07:03:33.891Z,2.099999905
2023-04-27T07:04:35.350Z,2.299999952
2023-04-27T07:05:36.788Z,2
2023-04-27T07:06:38.297Z,2.099999905
2023-04-27T07:07:39.805Z,2.599999905
2023-04-27T07:08:41.250Z,2.5
2023-04-27T07:10:14.298Z,2.299999952
2023-04-27T07:11:15.806Z,2.400000095
2023-04-27T07:12:17.350Z,2.400000095
2023-04-27T07:13:18.825Z,2
2023-04-27T07:14:20.300Z,2.299999952
2023-04-27T07:15:21.814Z,2.299999952
2023-04-27T07:16:23.353Z,2.200000048
2023-04-27T07:17:25.358Z,2.299999952
2023-04-27T07:18:26.803Z,2.099999905
2023-04-27T07:19:28.303Z,2.700000048
2023-04-27T07:20:29.806Z,1.899999976
2023-04-27T07:21:31.377Z,3.099999905
2023-04-27T07:22:32.756Z,2.099999905
2023-04-27T07:23:34.227Z,2.400000095
2023-04-27T07:24:35.799Z,2.400000095
2023-04-27T07:25:37.300Z,2.5
2023-04-27T07:26:38.812Z,2.200000048
2023-04-27T07:27:40.353Z,2.400000095
2023-04-27T07:28:41.796Z,2.599999905
2023-04-27T07:30:14.861Z,2.700000048
2023-04-27T07:31:15.743Z,2.5
2023-04-27T07:32:16.712Z,2.299999952
2023-04-27T07:33:18.387Z,2.700000048
2023-04-27T07:34:20.376Z,1.899999976
2023-04-27T07:35:21.811Z,2.099999905
2023-04-27T07:36:23.246Z,2.599999905
2023-04-27T07:37:24.793Z,2.299999952
2023-04-27T07:38:26.304Z,2.099999905
2023-04-27T07:39:27.750Z,2.700000048
2023-04-27T07:40:29.304Z,2.299999952
2023-04-27T07:41:30.753Z,2.299999952
2023-04-27T07:42:32.299Z,2.599999905
2023-04-27T07:43:33.840Z,2
2023-04-27T07:44:35.317Z,2.200000048
2023-04-27T07:45:36.871Z,2.400000095
2023-04-27T07:46:38.284Z,2.799999952
2023-04-27T07:47:39.846Z,2
2023-04-27T07:48:41.486Z,2.299999952
2023-04-27T07:50:13.829Z,2.5
2023-04-27T07:51:15.346Z,2.200000048
2023-04-27T07:52:16.945Z,2.299999952
2023-04-27T07:53:18.853Z,2.400000095
2023-04-27T07:54:20.433Z,2.099999905
2023-04-27T07:55:21.976Z,2.900000095
2023-04-27T07:56:23.851Z,2.299999952
2023-04-27T07:57:25.297Z,2.400000095
2023-04-27T07:58:26.824Z,2.599999905
2023-04-27T07:59:28.269Z,2.099999905
2023-04-27T08:00:29.783Z,2.599999905
2023-04-27T08:01:31.331Z,2.299999952
2023-04-27T08:02:32.551Z,2.700000048
2023-04-27T08:03:34.202Z,1.799999952
2023-04-27T08:04:35.723Z,2.200000048
2023-04-27T08:05:37.053Z,2.200000048
2023-04-27T08:06:39.047Z,1.899999976
2023-04-27T08:07:44.593Z,1.899999976
2023-04-27T08:08:42.262Z,2.200000048
2023-04-27T08:10:15.309Z,1.700000048
2023-04-27T08:11:16.826Z,2.299999952
2023-04-27T08:12:18.486Z,1.799999952
2023-04-27T08:13:20.272Z,1.799999952
2023-04-27T08:14:22.648Z,2.099999905
2023-04-27T08:15:24.268Z,1.899999976
2023-04-27T08:16:25.869Z,1.799999952
2023-04-27T08:17:27.254Z,1.899999976
2023-04-27T08:18:28.082Z,2.200000048
2023-04-27T08:19:28.919Z,2.200000048
2023-04-27T08:20:30.815Z,2.200000048
2023-04-27T08:21:32.204Z,2.5
2023-04-27T08:22:33.741Z,2.099999905
2023-04-27T08:23:35.211Z,2
2023-04-27T08:24:36.724Z,1.899999976
2023-04-27T08:25:38.228Z,1.799999952
2023-04-27T08:26:39.911Z,2.200000048
2023-04-27T08:27:42.183Z,2
2023-04-27T08:29:26.341Z,2
2023-04-27T08:30:16.829Z,2.299999952
2023-04-27T08:31:17.678Z,2.200000048
2023-04-27T08:32:19.193Z,2.200000048
2023-04-27T08:33:20.758Z,1.600000024
2023-04-27T08:34:22.208Z,1.899999976
2023-04-27T08:35:23.805Z,1.899999976
2023-04-27T08:36:25.213Z,2
2023-04-27T08:37:27.349Z,1.600000024
2023-04-27T08:38:28.775Z,1.899999976
2023-04-27T08:39:30.316Z,1.799999952
2023-04-27T08:40:31.797Z,1.799999952
2023-04-27T08:41:33.212Z,1.899999976
2023-04-27T08:42:34.728Z,2
2023-04-27T08:43:36.805Z,1.799999952
2023-04-27T08:44:37.676Z,1.600000024
2023-04-27T08:45:38.558Z,1.600000024
2023-04-27T08:46:39.486Z,2.200000048
2023-04-27T08:47:43.909Z,1.600000024
2023-04-27T08:49:15.152Z,2.099999905
2023-04-27T08:50:14.794Z,2.299999952
2023-04-27T08:51:15.748Z,2.299999952
2023-04-27T08:52:16.548Z,2.700000048
2023-04-27T08:53:17.434Z,1.799999952
2023-04-27T08:54:19.266Z,1.799999952
2023-04-27T08:55:20.802Z,1.600000024
2023-04-27T08:56:22.275Z,1.799999952
2023-04-27T08:57:24.013Z,2.099999905
2023-04-27T08:58:25.847Z,1.5
2023-04-27T08:59:27.785Z,1.600000024
2023-04-27T09:00:29.408Z,1.700000048
2023-04-27T09:01:31.398Z,2.299999952
2023-04-27T09:02:32.954Z,2.799999952
2023-04-27T09:03:34.436Z,1.899999976
2023-04-27T09:04:35.998Z,2.200000048
2023-04-27T09:05:37.290Z,2.200000048
2023-04-27T09:06:38.841Z,2.200000048
2023-04-27T09:07:40.386Z,2.099999905
2023-04-27T09:09:14.007Z,1.799999952
2023-04-27T09:10:15.414Z,1.700000048
2023-04-27T09:11:16.809Z,2.799999952
2023-04-27T09:12:18.364Z,15.89999962
2023-04-27T09:13:19.783Z,8.100000381
2023-04-27T09:14:21.284Z,3.700000048
2023-04-27T09:15:22.847Z,1.399999976
2023-04-27T09:16:24.398Z,1.100000024
2023-04-27T09:17:25.893Z,1.100000024
2023-04-27T09:18:27.348Z,1
2023-04-27T09:19:28.848Z,0.899999976
2023-04-27T09:20:30.229Z,1.100000024
2023-04-27T09:21:31.768Z,1
2023-04-27T09:22:33.405Z,1.5
2023-04-27T09:23:34.872Z,1.299999952
2023-04-27T09:24:36.874Z,1.5
2023-04-27T09:25:38.332Z,1.299999952
2023-04-27T09:26:39.893Z,0.800000012
2023-04-27T09:28:13.762Z,1.200000048
2023-04-27T09:29:15.624Z,1.299999952
2023-04-27T09:30:17.412Z,1.200000048
2023-04-27T09:31:19.360Z,1.399999976
2023-04-27T09:32:20.975Z,1.100000024
2023-04-27T09:33:22.467Z,1.100000024
2023-04-27T09:34:24.466Z,1.200000048
2023-04-27T09:35:26.392Z,1.200000048
2023-04-27T09:36:27.782Z,1.200000048
2023-04-27T09:37:29.306Z,1
2023-04-27T09:38:30.989Z,0.899999976
2023-04-27T09:39:32.851Z,1.299999952
2023-04-27T09:40:34.293Z,1.200000048
2023-04-27T09:41:35.752Z,1
2023-04-27T09:42:37.330Z,1
2023-04-27T09:43:38.841Z,1
2023-04-27T09:44:40.514Z,0.800000012
2023-04-27T09:46:12.739Z,0.800000012
2023-04-27T09:47:14.423Z,0.600000024
2023-04-27T09:48:16.302Z,0.899999976
2023-04-27T09:49:17.831Z,0.699999988
2023-04-27T09:50:19.441Z,0.800000012
2023-04-27T09:51:21.239Z,0.600000024
2023-04-27T09:52:22.848Z,0.699999988
2023-04-27T09:53:23.783Z,0.699999988
2023-04-27T09:54:24.781Z,0.800000012
2023-04-27T09:55:26.672Z,0.899999976
2023-04-27T09:56:28.347Z,0.800000012
2023-04-27T09:57:29.765Z,0.899999976
2023-04-27T09:58:31.381Z,0.800000012
2023-04-27T09:59:32.884Z,1
2023-04-27T10:00:34.325Z,1.100000024
2023-04-27T10:01:37.265Z,1
2023-04-27T10:02:50.096Z,1
2023-04-27T10:03:37.873Z,1.100000024
2023-04-27T10:04:39.460Z,1.100000024
2023-04-27T10:06:12.853Z,0.899999976
2023-04-27T10:07:14.302Z,0.800000012
2023-04-27T10:08:15.850Z,1.200000048
2023-04-27T10:09:17.344Z,0.600000024
2023-04-27T10:10:18.996Z,0.800000012
2023-04-27T10:11:20.414Z,0.899999976
2023-04-27T10:12:22.356Z,0.899999976
2023-04-27T10:13:23.854Z,1.600000024
2023-04-27T10:14:25.431Z,2.400000095
2023-04-27T10:15:26.867Z,1.200000048
2023-04-27T10:16:28.395Z,2.200000048
2023-04-27T10:17:29.896Z,2.099999905
2023-04-27T10:18:31.361Z,1
2023-04-27T10:19:32.915Z,1
2023-04-27T10:20:34.433Z,1.100000024
2023-04-27T10:21:36.297Z,2.099999905
2023-04-27T10:22:37.750Z,1.399999976
2023-04-27T10:23:39.193Z,1.200000048
2023-04-27T10:25:12.423Z,1.899999976
2023-04-27T10:26:13.881Z,0.899999976
2023-04-27T10:27:15.376Z,0.800000012
2023-04-27T10:28:16.912Z,1.100000024
2023-04-27T10:29:18.777Z,0.800000012
2023-04-27T10:30:20.356Z,0.800000012
2023-04-27T10:31:21.883Z,0.899999976
2023-04-27T10:32:23.260Z,1.899999976
2023-04-27T10:33:24.850Z,1.5
2023-04-27T10:34:26.275Z,1
2023-04-27T10:35:27.822Z,0.899999976
2023-04-27T10:36:29.330Z,2.299999952
2023-04-27T10:37:30.853Z,2.599999905
2023-04-27T10:38:32.431Z,3.400000095
2023-04-27T10:39:44.093Z,1.799999952
2023-04-27T10:40:35.895Z,1.700000048
2023-04-27T10:41:37.394Z,1.299999952
2023-04-27T10:42:38.819Z,1.5
2023-04-27T10:43:40.678Z,4
2023-04-27T10:45:13.862Z,1.700000048
2023-04-27T10:46:15.411Z,1.799999952
2023-04-27T10:47:17.370Z,1.200000048
2023-04-27T10:48:18.715Z,0.899999976
2023-04-27T10:49:20.244Z,1
2023-04-27T10:50:22.003Z,0.699999988
2023-04-27T10:51:23.922Z,1
2023-04-27T10:52:25.813Z,0.600000024
2023-04-27T10:53:27.274Z,0.699999988
2023-04-27T10:54:28.791Z,1.100000024
2023-04-27T10:55:30.320Z,1.799999952
2023-04-27T10:56:32.515Z,1
2023-04-27T10:57:34.356Z,1.200000048
2023-04-27T10:58:48.428Z,1.200000048
2023-04-27T10:59:37.317Z,0.699999988
2023-04-27T11:00:38.940Z,0.800000012
2023-04-27T11:01:40.393Z,0.800000012
2023-04-27T11:03:13.244Z,1.299999952
2023-04-27T11:04:15.064Z,0.800000012
2023-04-27T11:05:16.427Z,0.699999988
2023-04-27T11:06:18.385Z,0.800000012
2023-04-27T11:07:19.938Z,0.899999976
2023-04-27T11:08:21.829Z,0.699999988
2023-04-27T11:09:23.250Z,1.200000048
2023-04-27T11:10:24.788Z,1
2023-04-27T11:11:26.433Z,1.100000024
2023-04-27T11:12:28.524Z,0.899999976
2023-04-27T11:13:30.286Z,0.699999988
2023-04-27T11:14:31.688Z,0.5
2023-04-27T11:15:33.373Z,0.699999988
2023-04-27T11:16:34.955Z,0.899999976
2023-04-27T11:17:36.836Z,1
2023-04-27T11:18:38.483Z,0.899999976
2023-04-27T11:20:11.847Z,0.899999976
2023-04-27T11:21:13.733Z,0.600000024
2023-04-27T11:22:15.396Z,0.600000024
2023-04-27T11:23:16.859Z,0.5
2023-04-27T11:24:18.361Z,0.400000006
2023-04-27T11:25:19.857Z,0.5
2023-04-27T11:26:21.380Z,0.600000024
2023-04-27T11:27:22.866Z,0.899999976
2023-04-27T11:28:24.903Z,0.899999976
2023-04-27T11:29:26.837Z,0.899999976
2023-04-27T11:30:28.301Z,0.899999976
2023-04-27T11:31:29.858Z,0.800000012
2023-04-27T11:32:31.342Z,1
2023-04-27T11:33:32.891Z,0.899999976
2023-04-27T11:34:34.298Z,1.100000024
2023-04-27T11:35:35.728Z,1.5
2023-04-27T11:36:37.358Z,0.899999976
2023-04-27T11:37:39.421Z,0.699999988
2023-04-27T11:39:12.659Z,0.800000012
2023-04-27T11:40:13.846Z,0.5
2023-04-27T11:41:15.327Z,0.899999976
2023-04-27T11:42:16.851Z,0.800000012
2023-04-27T11:43:18.335Z,0.600000024
2023-04-27T11:44:19.911Z,0.800000012
2023-04-27T11:45:21.254Z,0.699999988
2023-04-27T11:46:22.903Z,0.699999988
2023-04-27T11:47:24.367Z,0.600000024
2023-04-27T11:48:25.872Z,0.800000012
2023-04-27T11:49:27.365Z,1.200000048
2023-04-27T11:50:28.928Z,0.800000012
2023-04-27T11:51:30.790Z,0.600000024
2023-04-27T11:52:32.642Z,0.600000024
2023-04-27T11:53:34.385Z,0.5
2023-04-27T11:54:35.884Z,0.699999988
2023-04-27T11:55:36.761Z,0.800000012
2023-04-27T11:56:37.653Z,0.5
2023-04-27T11:57:39.878Z,0.800000012
2023-04-27T11:59:12.468Z,0.699999988
2023-04-27T12:00:13.915Z,0.600000024
2023-04-27T12:01:18.118Z,1
2023-04-27T12:02:16.963Z,0.5
2023-04-27T12:03:18.574Z,0.5